Time;durP1;ratioP1;P1;durP2;ratioP2;P2;SDS_P1;SDS_P2;PMS_P1;PMS_P2;Temp;Humidity;BMP_temperature;BMP_pressure;BME280_temperature;BME280_humidity;BME280_pressure;Samples;Min_cycle;Max_cycle;Signal;HPM_P1;HPM_P2
2023/09/29 00:01:53;;;;;;;4.70;3.03;;;;;;;;;;5029880;28;20513;-56
2023/09/29 00:04:20;;;;;;;8.23;3.37;;;;;;;;;;5030993;28;20504;-55
2023/09/29 00:06:47;;;;;;;3.90;3.13;;;;;;;;;;5031173;28;20544;-57
2023/09/29 00:09:16;;;;;;;4.80;2.90;;;;;;;;;;5031581;28;20917;-55
2023/09/29 00:11:43;;;;;;;6.80;2.80;;;;;;;;;;5030779;28;20469;-55
2023/09/29 00:14:10;;;;;;;4.37;2.60;;;;;;;;;;5031420;28;20438;-55
2023/09/29 00:16:37;;;;;;;4.70;2.90;;;;;;;;;;5031928;28;20559;-56
2023/09/29 00:19:06;;;;;;;3.60;2.67;;;;;;;;;;5023611;28;20822;-56
2023/09/29 00:21:33;;;;;;;4.00;2.57;;;;;;;;;;5020953;28;20600;-56
2023/09/29 00:24:01;;;;;;;4.07;2.80;;;;;;;;;;5026857;28;20450;-55
2023/09/29 00:26:28;;;;;;;4.13;3.10;;;;;;;;;;5031865;28;20469;-55
2023/09/29 00:28:56;;;;;;;4.80;3.00;;;;;;;;;;5031412;28;20450;-55
2023/09/29 00:31:23;;;;;;;3.70;2.33;;;;;;;;;;5030277;28;20501;-55
2023/09/29 00:33:50;;;;;;;6.47;3.60;;;;;;;;;;5030925;28;21209;-54
2023/09/29 00:36:19;;;;;;;5.03;3.27;;;;;;;;;;5030099;28;20540;-55
2023/09/29 00:38:46;;;;;;;4.97;2.80;;;;;;;;;;5030426;28;20644;-54
2023/09/29 00:41:14;;;;;;;4.63;3.10;;;;;;;;;;5030012;28;20990;-55
2023/09/29 00:43:41;;;;;;;10.83;3.50;;;;;;;;;;5030963;28;20435;-55
2023/09/29 00:46:08;;;;;;;5.37;3.13;;;;;;;;;;5031512;28;20544;-54
2023/09/29 00:48:36;;;;;;;3.63;2.87;;;;;;;;;;5031641;28;20508;-55
2023/09/29 00:51:03;;;;;;;4.20;2.90;;;;;;;;;;5030576;28;20474;-55
2023/09/29 00:53:34;;;;;;;5.80;3.23;;;;;;;;;;5031681;28;20931;-56
2023/09/29 00:56:02;;;;;;;4.37;2.73;;;;;;;;;;5030527;28;20948;-56
2023/09/29 00:58:29;;;;;;;5.50;2.90;;;;;;;;;;5031713;28;20446;-55
2023/09/29 01:00:57;;;;;;;4.97;2.83;;;;;;;;;;5030775;28;20478;-56
2023/09/29 01:03:25;;;;;;;4.50;2.63;;;;;;;;;;5029785;28;20475;-56
2023/09/29 01:05:52;;;;;;;7.90;2.93;;;;;;;;;;5030498;28;20446;-56
2023/09/29 01:08:21;;;;;;;3.33;2.47;;;;;;;;;;5029996;28;20896;-55
2023/09/29 01:10:50;;;;;;;3.10;2.53;;;;;;;;;;5029382;28;20462;-56
2023/09/29 01:13:17;;;;;;;4.60;2.80;;;;;;;;;;5030199;28;20879;-57
2023/09/29 01:15:45;;;;;;;4.30;3.07;;;;;;;;;;5030144;28;20449;-57
2023/09/29 01:18:12;;;;;;;4.30;3.37;;;;;;;;;;5022341;28;20919;-55
2023/09/29 01:20:40;;;;;;;4.10;2.77;;;;;;;;;;5019269;28;20999;-55
2023/09/29 01:23:07;;;;;;;3.90;2.90;;;;;;;;;;5020219;28;20469;-55
2023/09/29 01:25:36;;;;;;;4.40;2.87;;;;;;;;;;5022212;28;20447;-56
2023/09/29 01:28:05;;;;;;;3.93;2.57;;;;;;;;;;5027232;28;21000;-55
2023/09/29 01:30:32;;;;;;;6.50;3.00;;;;;;;;;;5030672;28;20445;-55
2023/09/29 01:33:00;;;;;;;4.70;3.10;;;;;;;;;;5030474;28;20812;-56
2023/09/29 01:35:28;;;;;;;4.33;3.07;;;;;;;;;;5030748;28;20504;-57
2023/09/29 01:37:56;;;;;;;3.17;2.67;;;;;;;;;;5029936;28;20520;-56
2023/09/29 01:40:26;;;;;;;4.47;2.70;;;;;;;;;;5029368;28;20481;-55
2023/09/29 01:42:56;;;;;;;2.90;2.50;;;;;;;;;;5030473;28;20478;-56
2023/09/29 01:45:24;;;;;;;3.57;2.37;;;;;;;;;;5030647;28;20450;-55
2023/09/29 01:47:51;;;;;;;3.73;3.00;;;;;;;;;;5030386;28;20516;-55
2023/09/29 01:50:20;;;;;;;3.40;2.60;;;;;;;;;;5029655;28;20504;-55
2023/09/29 01:52:48;;;;;;;3.60;2.60;;;;;;;;;;5030464;28;20470;-55
2023/09/29 01:55:19;;;;;;;4.83;2.70;;;;;;;;;;5029978;28;20469;-55
2023/09/29 01:57:48;;;;;;;3.60;2.40;;;;;;;;;;5030590;28;20446;-55
2023/09/29 02:00:19;;;;;;;3.93;2.90;;;;;;;;;;5029908;28;20542;-55
2023/09/29 02:02:47;;;;;;;3.67;2.63;;;;;;;;;;5030367;28;20477;-57
2023/09/29 02:05:16;;;;;;;3.97;2.73;;;;;;;;;;5030016;28;20529;-55
2023/09/29 02:07:43;;;;;;;4.70;3.10;;;;;;;;;;5029938;28;20801;-55
2023/09/29 02:10:11;;;;;;;4.47;2.53;;;;;;;;;;5030055;28;20500;-56
2023/09/29 02:12:40;;;;;;;3.30;2.50;;;;;;;;;;5029765;28;20470;-55
2023/09/29 02:15:09;;;;;;;3.87;2.60;;;;;;;;;;5029990;28;20482;-58
2023/09/29 02:17:38;;;;;;;4.33;2.93;;;;;;;;;;5029828;28;20454;-55
2023/09/29 02:20:12;;;;;;;3.80;2.80;;;;;;;;;;5028826;28;20873;-59
2023/09/29 02:22:39;;;;;;;3.37;2.40;;;;;;;;;;5030094;28;20535;-56
2023/09/29 02:25:07;;;;;;;5.67;2.70;;;;;;;;;;5029512;28;20485;-54
2023/09/29 02:27:36;;;;;;;4.10;2.47;;;;;;;;;;5028235;28;20559;-54
2023/09/29 02:30:04;;;;;;;4.90;2.90;;;;;;;;;;5029757;28;20835;-55
2023/09/29 02:32:31;;;;;;;4.00;2.63;;;;;;;;;;5029792;28;20473;-57
2023/09/29 02:35:00;;;;;;;4.50;3.40;;;;;;;;;;5028936;28;20515;-56
2023/09/29 02:37:27;;;;;;;4.80;3.30;;;;;;;;;;5029388;28;20458;-56
2023/09/29 02:39:55;;;;;;;3.20;2.13;;;;;;;;;;5029057;28;20478;-55
2023/09/29 02:42:22;;;;;;;5.20;2.47;;;;;;;;;;5028576;28;20492;-59
2023/09/29 02:44:49;;;;;;;4.00;2.57;;;;;;;;;;5029830;28;20510;-55
2023/09/29 02:47:17;;;;;;;4.27;2.97;;;;;;;;;;5029185;28;20954;-54
2023/09/29 02:49:44;;;;;;;3.87;2.70;;;;;;;;;;5024984;28;20487;-55
2023/09/29 02:52:12;;;;;;;5.13;2.77;;;;;;;;;;5017688;28;20497;-55
2023/09/29 02:54:40;;;;;;;6.40;3.40;;;;;;;;;;5017278;28;20500;-55
2023/09/29 02:57:08;;;;;;;4.87;3.10;;;;;;;;;;5022391;28;20442;-56
2023/09/29 02:59:35;;;;;;;4.13;3.13;;;;;;;;;;5027734;28;20530;-58
2023/09/29 03:02:03;;;;;;;4.77;3.00;;;;;;;;;;5028693;28;20514;-57
2023/09/29 03:04:30;;;;;;;4.20;2.77;;;;;;;;;;5028885;28;20515;-55
2023/09/29 03:06:59;;;;;;;3.70;2.90;;;;;;;;;;5028663;28;20496;-54
2023/09/29 03:09:29;;;;;;;3.83;2.60;;;;;;;;;;5028232;28;20442;-55
2023/09/29 03:11:58;;;;;;;4.90;3.20;;;;;;;;;;5028755;28;20471;-56
2023/09/29 03:14:26;;;;;;;4.10;2.40;;;;;;;;;;5028146;28;20832;-55
2023/09/29 03:16:54;;;;;;;3.50;2.10;;;;;;;;;;5029201;28;20454;-55
2023/09/29 03:19:21;;;;;;;3.37;2.57;;;;;;;;;;5015354;28;20458;-55
2023/09/29 03:21:49;;;;;;;6.67;2.70;;;;;;;;;;5016633;28;20577;-55
2023/09/29 03:24:16;;;;;;;4.50;2.63;;;;;;;;;;5013379;28;20542;-56
2023/09/29 03:26:49;;;;;;;3.47;2.43;;;;;;;;;;5012736;28;20447;-56
2023/09/29 03:29:17;;;;;;;4.17;3.00;;;;;;;;;;5027978;28;20455;-55
2023/09/29 03:31:46;;;;;;;5.50;2.97;;;;;;;;;;5030037;28;20851;-55
2023/09/29 03:34:14;;;;;;;5.50;3.13;;;;;;;;;;5031169;28;20976;-57
2023/09/29 03:36:41;;;;;;;4.80;2.83;;;;;;;;;;5032857;28;20454;-57
2023/09/29 03:39:09;;;;;;;4.40;3.60;;;;;;;;;;5031832;28;20817;-57
2023/09/29 03:41:36;;;;;;;6.00;2.93;;;;;;;;;;5030678;28;20489;-57
2023/09/29 03:44:06;;;;;;;4.37;2.73;;;;;;;;;;5032844;28;20458;-56
2023/09/29 03:46:33;;;;;;;3.90;2.80;;;;;;;;;;5033238;28;20446;-57
2023/09/29 03:49:01;;;;;;;4.37;2.87;;;;;;;;;;5031785;28;20442;-55
2023/09/29 03:51:30;;;;;;;3.90;2.63;;;;;;;;;;5022590;28;20497;-56
2023/09/29 03:53:57;;;;;;;4.00;2.57;;;;;;;;;;5014761;28;20500;-56
2023/09/29 03:56:25;;;;;;;4.20;2.80;;;;;;;;;;5014227;28;20470;-56
2023/09/29 03:58:53;;;;;;;4.97;3.20;;;;;;;;;;5015443;28;20445;-55
2023/09/29 04:01:22;;;;;;;4.17;3.27;;;;;;;;;;5032357;28;20580;-54
2023/09/29 04:03:49;;;;;;;3.93;2.53;;;;;;;;;;5032480;28;20442;-55
2023/09/29 04:06:17;;;;;;;3.60;2.90;;;;;;;;;;5032143;28;20450;-55
2023/09/29 04:08:44;;;;;;;4.20;3.07;;;;;;;;;;5032230;28;20815;-55
2023/09/29 04:11:11;;;;;;;4.63;2.80;;;;;;;;;;5030145;28;20473;-54
2023/09/29 04:13:38;;;;;;;3.40;2.70;;;;;;;;;;5032443;28;20534;-55
2023/09/29 04:16:06;;;;;;;5.10;3.20;;;;;;;;;;5032292;28;20449;-55
2023/09/29 04:18:35;;;;;;;6.77;3.00;;;;;;;;;;5031939;28;20503;-54
2023/09/29 04:21:02;;;;;;;8.67;3.70;;;;;;;;;;5017049;28;20961;-55
2023/09/29 04:23:29;;;;;;;5.73;2.60;;;;;;;;;;5023784;28;20848;-55
2023/09/29 04:25:57;;;;;;;3.97;2.97;;;;;;;;;;5029278;28;20438;-56
2023/09/29 04:28:24;;;;;;;3.53;2.70;;;;;;;;;;5031704;28;20458;-57
2023/09/29 04:30:52;;;;;;;4.33;3.17;;;;;;;;;;5032100;28;20988;-55
2023/09/29 04:33:19;;;;;;;5.30;3.70;;;;;;;;;;5031144;28;20497;-57
2023/09/29 04:35:48;;;;;;;4.80;3.03;;;;;;;;;;5032432;28;20604;-56
2023/09/29 04:38:15;;;;;;;4.13;2.80;;;;;;;;;;5031106;28;20512;-56
2023/09/29 04:40:42;;;;;;;4.00;2.80;;;;;;;;;;5025479;28;20508;-56
2023/09/29 04:43:10;;;;;;;3.97;2.90;;;;;;;;;;5033023;23;20531;-86
2023/09/29 04:45:37;;;;;;;4.40;2.77;;;;;;;;;;5010603;28;20462;-85
2023/09/29 04:48:05;;;;;;;4.63;3.00;;;;;;;;;;5008076;28;20472;-86
2023/09/29 04:50:34;;;;;;;4.00;2.80;;;;;;;;;;4997121;28;20498;-85
2023/09/29 04:53:02;;;;;;;11.20;3.23;;;;;;;;;;4997881;28;20470;-85
2023/09/29 04:55:30;;;;;;;3.97;2.83;;;;;;;;;;5001991;28;20436;-86
2023/09/29 04:57:57;;;;;;;4.20;2.90;;;;;;;;;;5004043;28;20510;-86
2023/09/29 05:00:24;;;;;;;3.43;2.60;;;;;;;;;;4999616;28;20974;-86
2023/09/29 05:02:52;;;;;;;3.90;2.80;;;;;;;;;;4997303;28;20476;-86
2023/09/29 05:05:19;;;;;;;5.47;2.40;;;;;;;;;;5018350;28;20483;-87
2023/09/29 05:07:46;;;;;;;5.30;3.03;;;;;;;;;;4999219;28;20480;-86
2023/09/29 05:10:15;;;;;;;4.53;3.17;;;;;;;;;;4999317;28;20452;-86
2023/09/29 05:12:43;;;;;;;3.90;3.30;;;;;;;;;;4998918;28;20803;-87
2023/09/29 05:15:11;;;;;;;5.00;3.03;;;;;;;;;;4999497;28;20494;-86
2023/09/29 05:17:38;;;;;;;3.97;3.10;;;;;;;;;;5008904;28;20529;-86
2023/09/29 05:20:06;;;;;;;4.60;3.17;;;;;;;;;;5007026;28;20448;-87
2023/09/29 05:22:34;;;;;;;4.13;2.53;;;;;;;;;;5001769;28;20550;-86
2023/09/29 05:25:02;;;;;;;6.17;3.30;;;;;;;;;;5005578;28;20463;-87
2023/09/29 05:27:32;;;;;;;4.23;3.00;;;;;;;;;;4999659;28;20472;-86
2023/09/29 05:29:59;;;;;;;4.97;2.70;;;;;;;;;;4998952;28;20456;-86
2023/09/29 05:32:26;;;;;;;3.83;2.63;;;;;;;;;;5010733;28;20519;-86
2023/09/29 05:34:54;;;;;;;4.33;3.20;;;;;;;;;;5006616;28;20459;-86
2023/09/29 05:37:21;;;;;;;4.00;3.03;;;;;;;;;;4998881;28;21070;-86
2023/09/29 05:39:49;;;;;;;4.33;2.77;;;;;;;;;;4998009;28;20444;-86
2023/09/29 05:42:20;;;;;;;3.50;3.13;;;;;;;;;;4999757;28;20483;-87
2023/09/29 05:44:48;;;;;;;4.20;2.87;;;;;;;;;;5002588;28;20936;-86
2023/09/29 05:47:17;;;;;;;4.90;2.70;;;;;;;;;;4995701;28;20476;-85
2023/09/29 05:49:45;;;;;;;3.83;2.73;;;;;;;;;;5010859;28;20455;-87
2023/09/29 05:52:13;;;;;;;5.43;3.83;;;;;;;;;;4997639;28;20453;-86
2023/09/29 05:54:40;;;;;;;4.60;3.03;;;;;;;;;;4993478;28;20800;-87
2023/09/29 05:57:07;;;;;;;3.67;3.00;;;;;;;;;;4994167;28;20452;-87
2023/09/29 05:59:34;;;;;;;4.07;3.00;;;;;;;;;;4999715;28;20463;-86
2023/09/29 06:02:03;;;;;;;3.70;2.90;;;;;;;;;;4991635;28;20901;-85
2023/09/29 06:04:31;;;;;;;5.63;3.10;;;;;;;;;;4995204;28;20453;-86
2023/09/29 06:06:58;;;;;;;3.80;2.67;;;;;;;;;;4989777;28;20452;-85
2023/09/29 06:09:26;;;;;;;4.70;3.20;;;;;;;;;;4991156;28;20511;-85
2023/09/29 06:11:53;;;;;;;4.00;2.73;;;;;;;;;;4990535;28;20452;-85
2023/09/29 06:14:20;;;;;;;4.27;2.97;;;;;;;;;;4989649;28;20874;-85
2023/09/29 06:16:47;;;;;;;4.53;3.30;;;;;;;;;;4988919;28;20499;-85
2023/09/29 06:19:16;;;;;;;8.40;4.00;;;;;;;;;;4984172;28;20528;-84
2023/09/29 06:21:45;;;;;;;5.03;3.17;;;;;;;;;;4987997;28;20512;-84
2023/09/29 06:24:13;;;;;;;3.70;3.00;;;;;;;;;;4991243;28;20453;-85
2023/09/29 06:26:40;;;;;;;3.43;2.57;;;;;;;;;;4991333;28;20443;-84
2023/09/29 06:29:07;;;;;;;5.17;2.33;;;;;;;;;;4987492;28;20469;-85
2023/09/29 06:31:35;;;;;;;3.80;2.90;;;;;;;;;;4989679;28;20506;-84
2023/09/29 06:34:02;;;;;;;9.40;2.77;;;;;;;;;;4990642;28;20503;-84
2023/09/29 06:36:31;;;;;;;5.03;3.47;;;;;;;;;;4992441;28;20439;-85
2023/09/29 06:38:58;;;;;;;4.73;3.23;;;;;;;;;;5008968;28;20467;-85
2023/09/29 06:41:26;;;;;;;8.70;3.27;;;;;;;;;;4996130;28;20440;-84
2023/09/29 06:43:53;;;;;;;5.00;3.43;;;;;;;;;;4993024;28;20479;-85
2023/09/29 06:46:20;;;;;;;4.07;3.27;;;;;;;;;;4992019;28;20452;-84
2023/09/29 06:48:47;;;;;;;4.23;2.93;;;;;;;;;;4992027;28;20472;-84
2023/09/29 06:51:15;;;;;;;5.57;3.17;;;;;;;;;;4995484;28;20444;-85
2023/09/29 06:53:43;;;;;;;5.70;4.20;;;;;;;;;;4997689;28;20444;-84
2023/09/29 06:56:11;;;;;;;6.77;3.47;;;;;;;;;;4995513;28;20511;-85
2023/09/29 06:58:38;;;;;;;4.23;3.33;;;;;;;;;;4995301;28;20555;-85
2023/09/29 07:01:06;;;;;;;4.60;2.67;;;;;;;;;;4993299;28;20440;-84
2023/09/29 07:03:33;;;;;;;3.80;2.73;;;;;;;;;;4994927;28;20480;-85
2023/09/29 07:06:01;;;;;;;5.60;3.60;;;;;;;;;;4994945;28;20480;-86
2023/09/29 07:08:28;;;;;;;3.70;3.27;;;;;;;;;;4995169;28;20458;-86
2023/09/29 07:10:57;;;;;;;5.20;3.03;;;;;;;;;;4995115;28;20467;-85
2023/09/29 07:13:25;;;;;;;8.27;4.10;;;;;;;;;;4991722;28;20445;-85
2023/09/29 07:15:52;;;;;;;8.00;4.50;;;;;;;;;;4990890;28;21180;-85
2023/09/29 07:18:21;;;;;;;8.37;4.60;;;;;;;;;;4991022;28;20472;-86
2023/09/29 07:20:50;;;;;;;8.90;4.77;;;;;;;;;;4993112;28;21039;-85
2023/09/29 07:23:17;;;;;;;9.63;4.60;;;;;;;;;;4990855;28;20567;-85
2023/09/29 07:25:45;;;;;;;8.00;3.73;;;;;;;;;;4991636;28;20868;-85
2023/09/29 07:28:16;;;;;;;15.37;5.57;;;;;;;;;;4991195;28;20846;-85
2023/09/29 07:30:44;;;;;;;8.20;5.40;;;;;;;;;;4991958;28;20444;-85
2023/09/29 07:33:11;;;;;;;9.80;4.80;;;;;;;;;;4992774;28;20467;-85
2023/09/29 07:35:38;;;;;;;5.97;4.40;;;;;;;;;;4991108;28;20926;-84
2023/09/29 07:38:06;;;;;;;7.60;4.33;;;;;;;;;;4992879;28;20480;-85
2023/09/29 07:40:33;;;;;;;7.13;3.83;;;;;;;;;;4991517;28;20510;-86
2023/09/29 07:43:01;;;;;;;12.63;5.37;;;;;;;;;;4991000;28;20475;-84
2023/09/29 07:45:29;;;;;;;8.30;4.60;;;;;;;;;;4992474;28;20491;-85
2023/09/29 07:47:57;;;;;;;7.07;4.53;;;;;;;;;;4990037;28;21035;-85
2023/09/29 07:50:24;;;;;;;6.63;4.63;;;;;;;;;;4981615;28;20510;-85
2023/09/29 07:52:51;;;;;;;5.07;3.60;;;;;;;;;;4979098;28;20457;-84
2023/09/29 07:55:19;;;;;;;6.73;4.30;;;;;;;;;;4976084;28;20552;-85
2023/09/29 07:57:47;;;;;;;5.63;3.47;;;;;;;;;;4987622;28;20468;-85
2023/09/29 08:00:16;;;;;;;5.47;4.17;;;;;;;;;;4990236;28;20785;-85
2023/09/29 08:02:45;;;;;;;5.37;4.03;;;;;;;;;;4990402;28;20488;-85
2023/09/29 08:05:13;;;;;;;8.73;4.30;;;;;;;;;;4990474;28;20870;-85
2023/09/29 08:07:40;;;;;;;5.63;3.77;;;;;;;;;;4989730;28;21050;-85
2023/09/29 08:10:09;;;;;;;7.10;4.87;;;;;;;;;;4989952;28;20448;-85
2023/09/29 08:12:37;;;;;;;7.67;6.37;;;;;;;;;;5008916;28;20440;-85
2023/09/29 08:15:05;;;;;;;7.37;5.30;;;;;;;;;;4991635;28;21047;-86
2023/09/29 08:17:32;;;;;;;4.90;3.70;;;;;;;;;;4987595;28;20551;-86
2023/09/29 08:20:01;;;;;;;6.93;4.93;;;;;;;;;;4992354;28;20460;-86
2023/09/29 08:22:29;;;;;;;5.40;4.57;;;;;;;;;;4993377;28;20483;-86
2023/09/29 08:24:56;;;;;;;5.63;4.60;;;;;;;;;;4992563;28;20508;-86
2023/09/29 08:27:24;;;;;;;6.00;4.20;;;;;;;;;;4990831;28;20530;-86
2023/09/29 08:29:51;;;;;;;6.13;4.53;;;;;;;;;;4990875;28;20447;-84
2023/09/29 08:32:21;;;;;;;5.40;4.10;;;;;;;;;;4996130;28;20505;-84
2023/09/29 08:34:48;;;;;;;5.33;4.30;;;;;;;;;;4997742;28;20436;-84
2023/09/29 08:37:17;;;;;;;4.63;3.77;;;;;;;;;;4996290;28;20452;-84
2023/09/29 08:39:44;;;;;;;5.23;4.37;;;;;;;;;;4990180;28;20825;-85
2023/09/29 08:42:15;;;;;;;6.23;4.70;;;;;;;;;;4998073;28;20522;-85
2023/09/29 08:44:44;;;;;;;6.97;4.73;;;;;;;;;;4998216;28;20440;-85
2023/09/29 08:47:12;;;;;;;5.10;3.53;;;;;;;;;;4998035;28;20460;-84
2023/09/29 08:49:41;;;;;;;5.27;3.70;;;;;;;;;;4998415;28;20444;-85
2023/09/29 08:52:09;;;;;;;4.60;3.10;;;;;;;;;;4998437;28;20456;-86
2023/09/29 08:54:38;;;;;;;5.43;4.43;;;;;;;;;;4997768;28;20452;-84
2023/09/29 08:57:06;;;;;;;5.10;4.57;;;;;;;;;;4996670;28;20506;-84
2023/09/29 08:59:34;;;;;;;7.50;4.30;;;;;;;;;;4997809;28;20444;-84
2023/09/29 09:02:01;;;;;;;5.63;3.70;;;;;;;;;;4997035;28;20466;-84
2023/09/29 09:04:30;;;;;;;4.63;3.43;;;;;;;;;;4996507;28;21206;-83
2023/09/29 09:06:57;;;;;;;4.60;3.13;;;;;;;;;;4996484;28;20797;-84
2023/09/29 09:09:25;;;;;;;4.83;3.20;;;;;;;;;;4995347;28;20456;-85
2023/09/29 09:11:54;;;;;;;6.20;3.43;;;;;;;;;;5001819;28;20455;-84
2023/09/29 09:14:21;;;;;;;4.30;3.57;;;;;;;;;;4996774;28;20479;-83
2023/09/29 09:16:50;;;;;;;5.40;3.30;;;;;;;;;;4996338;28;20456;-83
2023/09/29 09:19:17;;;;;;;5.97;3.37;;;;;;;;;;4996024;28;20456;-83
2023/09/29 09:21:46;;;;;;;4.30;3.80;;;;;;;;;;5002785;28;20452;-83
2023/09/29 09:24:20;;;;;;;6.20;4.03;;;;;;;;;;4995845;28;20538;-83
2023/09/29 09:26:48;;;;;;;4.73;2.90;;;;;;;;;;4996398;28;20455;-83
2023/09/29 09:29:17;;;;;;;4.83;3.33;;;;;;;;;;4995897;28;20468;-83
2023/09/29 09:31:50;;;;;;;509.67;73.73;;;;;;;;;;4995415;28;20462;-84
2023/09/29 09:34:18;;;;;;;125.00;27.87;;;;;;;;;;4996107;28;20615;-83
2023/09/29 09:36:46;;;;;;;74.17;17.33;;;;;;;;;;4996025;28;20452;-83
2023/09/29 09:39:14;;;;;;;8.33;4.93;;;;;;;;;;4996504;28;20563;-83
2023/09/29 09:41:42;;;;;;;6.50;3.43;;;;;;;;;;4996346;28;20495;-84
2023/09/29 09:44:11;;;;;;;222.73;47.87;;;;;;;;;;4994689;28;21075;-83
2023/09/29 09:46:41;;;;;;;15.13;6.50;;;;;;;;;;4998107;28;20448;-83
2023/09/29 09:49:14;;;;;;;32.47;10.50;;;;;;;;;;4997904;28;21054;-83
2023/09/29 09:51:44;;;;;;;6.43;3.67;;;;;;;;;;4997776;28;20484;-84
2023/09/29 09:54:12;;;;;;;6.17;3.80;;;;;;;;;;4997457;28;20447;-84
2023/09/29 09:56:45;;;;;;;4.30;3.70;;;;;;;;;;4996771;28;20502;-84
2023/09/29 09:59:13;;;;;;;4.50;3.60;;;;;;;;;;4996420;28;20570;-84
2023/09/29 10:01:42;;;;;;;4.67;3.40;;;;;;;;;;5001286;28;20920;-84
2023/09/29 10:04:12;;;;;;;11.57;3.97;;;;;;;;;;4995270;28;20538;-84
2023/09/29 10:06:44;;;;;;;6.53;3.77;;;;;;;;;;4994492;28;20452;-84
2023/09/29 10:09:11;;;;;;;4.40;3.40;;;;;;;;;;4993559;28;20479;-83
2023/09/29 10:11:42;;;;;;;5.27;3.83;;;;;;;;;;4993550;28;20455;-83
2023/09/29 10:14:10;;;;;;;4.70;3.20;;;;;;;;;;4993632;28;20491;-83
2023/09/29 10:16:38;;;;;;;5.40;3.90;;;;;;;;;;4993088;28;20924;-84
2023/09/29 10:19:12;;;;;;;6.13;4.13;;;;;;;;;;4993107;28;20843;-84
2023/09/29 10:21:45;;;;;;;4.60;3.13;;;;;;;;;;4993219;28;20448;-84
2023/09/29 10:24:13;;;;;;;6.20;3.50;;;;;;;;;;4993470;28;20491;-84
2023/09/29 10:26:44;;;;;;;9.30;3.60;;;;;;;;;;4993088;28;20456;-84
2023/09/29 10:29:18;;;;;;;7.10;3.00;;;;;;;;;;4993938;28;20917;-84
2023/09/29 10:31:46;;;;;;;4.97;3.17;;;;;;;;;;4986287;28;20518;-84
2023/09/29 10:34:21;;;;;;;4.50;3.07;;;;;;;;;;4987629;28;20464;-84
2023/09/29 10:36:55;;;;;;;7.53;3.20;;;;;;;;;;4990556;28;20439;-84
2023/09/29 10:39:27;;;;;;;5.33;3.10;;;;;;;;;;4990822;28;20435;-84
2023/09/29 10:42:04;;;;;;;4.73;3.60;;;;;;;;;;4990288;28;20448;-84
2023/09/29 10:44:31;;;;;;;4.77;4.17;;;;;;;;;;4991614;28;20487;-84
2023/09/29 10:46:59;;;;;;;4.77;3.37;;;;;;;;;;4984342;28;20453;-84
2023/09/29 10:49:35;;;;;;;3.70;3.10;;;;;;;;;;4988689;28;20483;-84
2023/09/29 10:52:02;;;;;;;4.70;3.20;;;;;;;;;;4989473;28;20948;-84
2023/09/29 10:54:30;;;;;;;4.63;3.37;;;;;;;;;;4998292;28;20464;-84
2023/09/29 10:56:57;;;;;;;3.53;3.03;;;;;;;;;;4989991;28;20517;-83
2023/09/29 10:59:24;;;;;;;8.67;3.57;;;;;;;;;;4991867;28;20452;-84
2023/09/29 11:01:52;;;;;;;8.30;4.07;;;;;;;;;;4992513;28;20903;-83
2023/09/29 11:04:19;;;;;;;5.10;3.50;;;;;;;;;;4992684;28;20472;-84
2023/09/29 11:06:49;;;;;;;5.27;3.20;;;;;;;;;;4992511;28;20452;-83
2023/09/29 11:09:19;;;;;;;6.33;3.37;;;;;;;;;;4992737;28;20452;-83
2023/09/29 11:11:46;;;;;;;4.83;3.53;;;;;;;;;;4992115;28;20829;-83
2023/09/29 11:14:14;;;;;;;3.73;2.83;;;;;;;;;;4992349;28;21184;-83
2023/09/29 11:16:41;;;;;;;5.10;3.43;;;;;;;;;;4992831;28;20455;-84
2023/09/29 11:19:10;;;;;;;4.60;3.30;;;;;;;;;;4996994;28;20975;-84
2023/09/29 11:21:38;;;;;;;5.40;3.10;;;;;;;;;;4999815;28;20510;-84
2023/09/29 11:24:08;;;;;;;5.57;3.50;;;;;;;;;;4993838;28;20483;-84
2023/09/29 11:26:36;;;;;;;4.60;3.37;;;;;;;;;;4992394;28;20517;-83
2023/09/29 11:29:03;;;;;;;5.33;3.40;;;;;;;;;;4995360;28;20518;-83
2023/09/29 11:31:31;;;;;;;4.70;3.80;;;;;;;;;;4992250;28;20799;-83
2023/09/29 11:33:59;;;;;;;5.13;3.50;;;;;;;;;;4992034;28;20447;-83
2023/09/29 11:36:29;;;;;;;8.80;4.30;;;;;;;;;;4992411;28;20471;-83
2023/09/29 11:38:57;;;;;;;4.37;3.03;;;;;;;;;;4991272;28;20479;-83
2023/09/29 11:41:25;;;;;;;6.80;3.43;;;;;;;;;;4990941;28;20439;-84
2023/09/29 11:43:52;;;;;;;4.70;3.40;;;;;;;;;;4991008;28;20484;-83
2023/09/29 11:46:20;;;;;;;5.97;3.50;;;;;;;;;;4991195;28;20534;-83
2023/09/29 11:48:47;;;;;;;5.30;3.77;;;;;;;;;;4990689;28;20472;-83
2023/09/29 11:51:14;;;;;;;4.23;3.10;;;;;;;;;;4990574;28;20449;-83
2023/09/29 11:53:43;;;;;;;5.63;3.40;;;;;;;;;;4994029;28;20448;-83
2023/09/29 11:56:10;;;;;;;5.63;3.80;;;;;;;;;;4992210;28;20456;-83
2023/09/29 11:58:39;;;;;;;4.70;4.13;;;;;;;;;;4992168;28;21351;-83
2023/09/29 12:01:08;;;;;;;6.53;3.80;;;;;;;;;;4990746;28;20456;-83
2023/09/29 12:03:36;;;;;;;5.97;3.73;;;;;;;;;;4992376;28;20484;-83
2023/09/29 12:06:03;;;;;;;4.30;3.40;;;;;;;;;;4989582;28;20490;-83
2023/09/29 12:08:30;;;;;;;6.50;3.70;;;;;;;;;;4991254;28;20467;-83
2023/09/29 12:10:58;;;;;;;6.03;3.23;;;;;;;;;;4991511;28;20500;-83
2023/09/29 12:13:26;;;;;;;6.63;3.77;;;;;;;;;;4990515;28;20485;-83
2023/09/29 12:15:55;;;;;;;3.90;3.03;;;;;;;;;;4992851;28;20561;-83
2023/09/29 12:18:22;;;;;;;4.60;3.20;;;;;;;;;;4992027;28;20921;-83
2023/09/29 12:20:52;;;;;;;5.30;3.70;;;;;;;;;;4993550;28;20689;-83
2023/09/29 12:23:19;;;;;;;4.60;3.50;;;;;;;;;;4995011;28;20861;-83
2023/09/29 12:25:47;;;;;;;3.70;3.03;;;;;;;;;;4989460;28;20488;-83
2023/09/29 12:28:16;;;;;;;5.97;3.60;;;;;;;;;;4990406;28;20530;-83
2023/09/29 12:30:44;;;;;;;4.77;3.40;;;;;;;;;;4988526;28;20502;-83
2023/09/29 12:33:13;;;;;;;5.80;3.77;;;;;;;;;;4992238;28;20515;-83
2023/09/29 12:35:40;;;;;;;5.90;3.93;;;;;;;;;;4992547;28;20435;-83
2023/09/29 12:38:08;;;;;;;5.03;3.20;;;;;;;;;;4991836;28;20478;-83
2023/09/29 12:40:37;;;;;;;4.57;3.93;;;;;;;;;;4991971;28;20452;-83
2023/09/29 12:43:04;;;;;;;5.37;3.80;;;;;;;;;;4992594;28;20567;-83
2023/09/29 12:45:31;;;;;;;4.53;3.13;;;;;;;;;;4992911;28;20488;-83
2023/09/29 12:47:59;;;;;;;5.37;3.33;;;;;;;;;;4992158;28;20890;-84
2023/09/29 12:50:28;;;;;;;4.87;3.67;;;;;;;;;;4993368;28;20448;-83
2023/09/29 12:52:55;;;;;;;4.63;3.87;;;;;;;;;;4996227;28;20527;-84
2023/09/29 12:55:22;;;;;;;3.87;3.17;;;;;;;;;;5019205;28;20472;-83
2023/09/29 12:57:52;;;;;;;4.60;3.80;;;;;;;;;;4999781;28;21018;-83
2023/09/29 13:00:19;;;;;;;4.67;2.83;;;;;;;;;;4998725;28;20456;-83
2023/09/29 13:02:51;;;;;;;4.37;3.13;;;;;;;;;;4999141;28;20472;-83
2023/09/29 13:05:18;;;;;;;3.87;3.13;;;;;;;;;;4997612;28;20476;-84
2023/09/29 13:07:49;;;;;;;4.40;2.90;;;;;;;;;;4996646;28;20543;-83
2023/09/29 13:10:18;;;;;;;4.20;3.33;;;;;;;;;;4997734;28;20460;-83
2023/09/29 13:12:48;;;;;;;5.90;3.70;;;;;;;;;;4996452;28;20529;-83
2023/09/29 13:15:15;;;;;;;3.83;3.40;;;;;;;;;;4996144;28;20932;-84
2023/09/29 13:17:43;;;;;;;4.03;3.17;;;;;;;;;;4996412;28;20461;-83
2023/09/29 13:20:12;;;;;;;5.00;3.30;;;;;;;;;;4996291;28;20452;-83
2023/09/29 13:22:39;;;;;;;5.03;3.50;;;;;;;;;;4996860;28;20463;-83
2023/09/29 13:25:08;;;;;;;5.43;3.77;;;;;;;;;;4994641;28;20492;-81
2023/09/29 13:27:36;;;;;;;4.10;3.27;;;;;;;;;;4993419;28;20522;-82
2023/09/29 13:30:04;;;;;;;5.53;3.80;;;;;;;;;;4993631;28;20459;-82
2023/09/29 13:32:32;;;;;;;5.10;3.87;;;;;;;;;;4994163;28;20486;-82
2023/09/29 13:34:59;;;;;;;4.33;3.73;;;;;;;;;;4994335;28;20452;-82
2023/09/29 13:37:26;;;;;;;6.17;4.03;;;;;;;;;;4994704;28;20469;-82
2023/09/29 13:39:56;;;;;;;4.17;3.43;;;;;;;;;;4994968;28;20448;-83
2023/09/29 13:42:25;;;;;;;4.50;3.70;;;;;;;;;;4991768;28;20790;-83
2023/09/29 13:44:55;;;;;;;4.80;3.47;;;;;;;;;;4985315;28;20476;-82
2023/09/29 13:47:22;;;;;;;4.43;3.40;;;;;;;;;;4989529;28;20562;-83
2023/09/29 13:49:49;;;;;;;5.43;3.33;;;;;;;;;;4989255;28;20895;-83
2023/09/29 13:52:19;;;;;;;5.23;3.43;;;;;;;;;;4988849;28;20859;-83
2023/09/29 13:54:46;;;;;;;7.80;3.47;;;;;;;;;;4990522;28;20458;-83
2023/09/29 13:57:13;;;;;;;5.00;3.20;;;;;;;;;;4990352;28;20471;-83
2023/09/29 13:59:42;;;;;;;7.50;3.70;;;;;;;;;;4989713;28;20464;-83
2023/09/29 14:02:09;;;;;;;5.27;3.20;;;;;;;;;;4989356;28;20513;-83
2023/09/29 14:04:37;;;;;;;5.13;3.57;;;;;;;;;;4990721;28;20570;-83
2023/09/29 14:07:04;;;;;;;5.90;3.80;;;;;;;;;;4990172;28;20444;-83
2023/09/29 14:09:31;;;;;;;4.80;3.77;;;;;;;;;;4990140;28;20730;-83
2023/09/29 14:11:58;;;;;;;5.37;3.50;;;;;;;;;;4989951;28;20881;-82
2023/09/29 14:14:26;;;;;;;5.57;3.23;;;;;;;;;;4989858;28;20514;-83
2023/09/29 14:16:55;;;;;;;4.90;3.47;;;;;;;;;;4990127;28;20519;-83
2023/09/29 14:19:22;;;;;;;8.00;3.37;;;;;;;;;;4990110;28;20608;-82
2023/09/29 14:21:49;;;;;;;7.50;3.53;;;;;;;;;;4989829;28;20428;-83
2023/09/29 14:24:17;;;;;;;7.10;3.57;;;;;;;;;;4990418;28;20456;-83
2023/09/29 14:26:45;;;;;;;9.53;3.77;;;;;;;;;;4994228;28;20527;-84
2023/09/29 14:29:12;;;;;;;8.23;3.43;;;;;;;;;;4992352;28;20460;-83
2023/09/29 14:31:44;;;;;;;5.07;3.37;;;;;;;;;;4990175;28;20463;-83
2023/09/29 14:34:13;;;;;;;5.00;2.60;;;;;;;;;;4989760;28;20478;-83
2023/09/29 14:36:40;;;;;;;4.90;3.33;;;;;;;;;;4994233;28;20448;-83
2023/09/29 14:39:09;;;;;;;5.07;3.10;;;;;;;;;;4990630;28;20498;-83
2023/09/29 14:41:37;;;;;;;5.10;2.53;;;;;;;;;;4991152;28;20472;-83
2023/09/29 14:44:05;;;;;;;4.37;3.20;;;;;;;;;;4990893;28;20555;-83
2023/09/29 14:46:32;;;;;;;5.20;2.70;;;;;;;;;;4989656;28;20541;-83
2023/09/29 14:49:00;;;;;;;3.33;2.57;;;;;;;;;;4989928;28;20558;-83